createdAt,value
2019-03-05T00:00:48.537Z,93.60
2019-03-05T00:03:17.647Z,93.90
2019-03-05T00:05:46.623Z,93.60
2019-03-05T00:08:15.618Z,93.60
2019-03-05T00:10:44.681Z,93.60
2019-03-05T00:13:13.818Z,93.60
2019-03-05T00:15:43.543Z,93.60
2019-03-05T00:18:12.634Z,93.60
2019-03-05T00:20:41.678Z,93.60
2019-03-05T00:23:10.702Z,93.70
2019-03-05T00:25:39.770Z,93.70
2019-03-05T00:28:12.624Z,93.70
2019-03-05T00:30:51.031Z,93.60
2019-03-05T00:33:39.118Z,93.70
2019-03-05T00:36:27.942Z,93.70
2019-03-05T00:39:26.269Z,93.70
2019-03-05T00:42:04.463Z,93.70
2019-03-05T00:44:56.150Z,93.80
2019-03-05T00:48:27.550Z,93.70
2019-03-05T00:51:24.310Z,93.70
2019-03-05T00:54:43.309Z,93.80
2019-03-05T00:57:37.174Z,93.80
2019-03-05T01:00:12.732Z,93.80
2019-03-05T01:03:04.502Z,93.90
2019-03-05T01:06:20.742Z,93.80
2019-03-05T01:08:49.842Z,93.80
2019-03-05T01:11:19.438Z,93.90
2019-03-05T01:13:48.448Z,93.80
2019-03-05T01:16:19.241Z,93.80
2019-03-05T01:18:48.265Z,93.80
2019-03-05T01:21:17.419Z,93.70
2019-03-05T01:23:46.575Z,93.70
2019-03-05T01:26:15.599Z,93.70
2019-03-05T01:28:44.638Z,93.60
2019-03-05T01:31:51.049Z,93.60
2019-03-05T01:34:42.206Z,93.70
2019-03-05T01:37:11.645Z,93.70
2019-03-05T01:39:46.220Z,93.70
2019-03-05T01:42:15.182Z,93.60
2019-03-05T01:44:45.289Z,93.70
2019-03-05T01:47:14.259Z,93.60
2019-03-05T01:49:43.292Z,93.70
2019-03-05T01:52:12.349Z,93.60
2019-03-05T01:54:41.369Z,93.70
2019-03-05T01:57:10.416Z,93.70
2019-03-05T01:59:39.454Z,93.70
2019-03-05T02:02:08.560Z,93.70
2019-03-05T02:04:37.638Z,93.80
2019-03-05T02:07:06.643Z,94.10
2019-03-05T02:09:35.706Z,93.70
2019-03-05T02:12:04.733Z,93.70
2019-03-05T02:14:33.716Z,93.70
2019-03-05T02:17:02.794Z,93.70
2019-03-05T02:19:36.741Z,93.70
2019-03-05T02:22:07.901Z,93.70
2019-03-05T02:25:12.443Z,93.70
2019-03-05T02:28:11.165Z,93.70
2019-03-05T02:30:53.417Z,93.60
2019-03-05T02:33:44.107Z,93.80
2019-03-05T02:36:35.191Z,93.80
2019-03-05T02:39:57.649Z,93.90
2019-03-05T02:43:09.053Z,94.00
2019-03-05T02:45:50.227Z,94.10
2019-03-05T02:48:55.870Z,94.10
2019-03-05T02:51:46.777Z,94.10
2019-03-05T02:54:59.062Z,94.20
2019-03-05T02:57:26.781Z,94.30
2019-03-05T02:59:55.934Z,94.30
2019-03-05T03:02:43.440Z,94.30
2019-03-05T03:05:37.313Z,94.30
2019-03-05T03:08:06.378Z,94.30
2019-03-05T03:10:35.427Z,94.30
2019-03-05T03:13:04.470Z,94.40
2019-03-05T03:15:33.543Z,94.40
2019-03-05T03:18:02.532Z,94.30
2019-03-05T03:20:31.534Z,94.30
2019-03-05T03:23:00.652Z,94.30
2019-03-05T03:25:29.684Z,94.30
2019-03-05T03:27:58.725Z,94.30
2019-03-05T03:30:28.444Z,94.30
2019-03-05T03:32:57.560Z,94.30
2019-03-05T03:35:26.629Z,94.30
2019-03-05T03:37:55.800Z,94.30
2019-03-05T03:40:25.234Z,94.30
2019-03-05T03:42:54.575Z,94.30
2019-03-05T03:45:24.791Z,94.30
2019-03-05T03:47:53.906Z,94.30
2019-03-05T03:50:22.984Z,94.80
2019-03-05T03:52:52.016Z,94.40
2019-03-05T03:55:21.132Z,94.30
2019-03-05T03:57:50.090Z,94.70
2019-03-05T04:00:20.859Z,94.40
2019-03-05T04:02:50.020Z,94.40
2019-03-05T04:05:19.049Z,94.40
2019-03-05T04:07:48.085Z,94.40
2019-03-05T04:10:17.130Z,94.40
2019-03-05T04:12:46.249Z,94.40
2019-03-05T04:15:16.866Z,94.40
2019-03-05T04:17:45.857Z,94.40
2019-03-05T04:20:19.092Z,94.40
2019-03-05T04:22:49.366Z,94.40
2019-03-05T04:25:37.541Z,94.40
2019-03-05T04:28:06.672Z,94.40
2019-03-05T04:30:35.731Z,94.40
2019-03-05T04:33:04.796Z,94.40
2019-03-05T04:35:33.925Z,94.40
2019-03-05T04:38:02.997Z,94.40
2019-03-05T04:40:31.959Z,94.40
2019-03-05T04:43:01.105Z,94.40
2019-03-05T04:45:53.855Z,94.40
2019-03-05T04:48:23.001Z,94.50
2019-03-05T04:50:58.386Z,94.50
2019-03-05T04:53:27.438Z,94.50
2019-03-05T04:55:56.522Z,94.50
2019-03-05T04:58:25.595Z,94.50
2019-03-05T05:00:56.338Z,94.50
2019-03-05T05:03:25.386Z,94.50
2019-03-05T05:05:54.390Z,94.50
2019-03-05T05:08:23.398Z,94.50
2019-03-05T05:10:52.519Z,94.50
2019-03-05T05:13:21.600Z,94.50
2019-03-05T05:15:50.740Z,94.50
2019-03-05T05:18:19.782Z,94.50
2019-03-05T05:20:48.820Z,94.50
2019-03-05T05:23:17.839Z,94.50
2019-03-05T05:25:47.077Z,94.50
2019-03-05T05:28:16.206Z,94.50
2019-03-05T05:30:45.221Z,94.50
2019-03-05T05:33:14.200Z,94.50
2019-03-05T05:35:43.187Z,94.50
2019-03-05T05:38:12.891Z,94.50
2019-03-05T05:40:54.297Z,94.50
2019-03-05T05:43:28.354Z,94.60
2019-03-05T05:45:57.358Z,94.60
2019-03-05T05:48:26.424Z,94.60
2019-03-05T05:50:55.441Z,94.60
2019-03-05T05:53:24.454Z,94.50
2019-03-05T05:55:53.528Z,94.60
2019-03-05T05:58:22.566Z,94.60
2019-03-05T06:00:54.189Z,94.60
2019-03-05T06:03:23.196Z,94.60
2019-03-05T06:05:52.280Z,94.60
2019-03-05T06:08:21.365Z,94.60
2019-03-05T06:10:52.692Z,94.60
2019-03-05T06:13:21.115Z,94.60
2019-03-05T06:15:50.170Z,94.60
2019-03-05T06:18:19.292Z,94.60
2019-03-05T06:20:48.338Z,94.60
2019-03-05T06:23:36.570Z,94.60
2019-03-05T06:26:08.623Z,94.60
2019-03-05T06:28:36.349Z,94.70
2019-03-05T06:31:05.362Z,94.70
2019-03-05T06:33:53.543Z,94.70
2019-03-05T06:36:22.594Z,94.70
2019-03-05T06:38:51.556Z,94.70
2019-03-05T06:41:20.565Z,94.70
2019-03-05T06:43:49.589Z,94.70
2019-03-05T06:46:18.587Z,94.70
2019-03-05T06:48:47.637Z,94.70
2019-03-05T06:51:16.715Z,94.70
2019-03-05T06:53:45.845Z,94.70
2019-03-05T06:56:14.874Z,94.70
2019-03-05T06:58:43.899Z,94.70
2019-03-05T07:01:12.986Z,94.60
2019-03-05T07:03:41.999Z,94.60
2019-03-05T07:06:48.030Z,94.60
2019-03-05T07:09:34.097Z,94.70
2019-03-05T07:12:19.095Z,94.70
2019-03-05T07:15:18.433Z,94.70
2019-03-05T07:17:51.742Z,94.70
2019-03-05T07:20:44.547Z,94.70
2019-03-05T07:23:54.749Z,94.70
2019-03-05T07:26:23.763Z,94.70
2019-03-05T07:28:52.781Z,94.80
2019-03-05T07:31:28.453Z,94.70
2019-03-05T07:33:57.465Z,94.60
2019-03-05T07:36:26.457Z,94.60
2019-03-05T07:38:55.443Z,94.60
2019-03-05T07:41:24.463Z,94.50
2019-03-05T07:44:12.661Z,94.50
2019-03-05T07:46:41.747Z,94.50
2019-03-05T07:49:10.796Z,94.50
2019-03-05T07:51:39.846Z,94.40
2019-03-05T07:54:10.070Z,94.40
2019-03-05T07:56:39.072Z,94.40
2019-03-05T07:59:08.133Z,94.40
2019-03-05T08:01:37.196Z,94.30
2019-03-05T08:04:06.208Z,94.30
2019-03-05T08:06:35.174Z,94.20
2019-03-05T08:09:32.053Z,94.10
2019-03-05T08:12:11.271Z,94.10
2019-03-05T08:14:58.475Z,94.10
2019-03-05T08:17:27.525Z,94.00
2019-03-05T08:19:56.569Z,93.90
2019-03-05T08:22:26.963Z,93.90
2019-03-05T08:24:55.983Z,93.80
2019-03-05T08:27:25.002Z,93.70
2019-03-05T08:29:53.961Z,93.60
2019-03-05T08:32:23.011Z,93.50
2019-03-05T08:34:52.025Z,93.40
2019-03-05T08:37:20.994Z,93.30
2019-03-05T08:39:50.217Z,93.30
2019-03-05T08:42:19.151Z,93.10
2019-03-05T08:44:50.709Z,92.70
2019-03-05T08:47:18.886Z,92.60
2019-03-05T08:49:47.840Z,91.90
2019-03-05T08:52:16.848Z,91.30
2019-03-05T08:54:45.893Z,91.10
2019-03-05T08:57:14.942Z,90.80
2019-03-05T08:59:43.931Z,90.80
2019-03-05T09:02:13.030Z,91.00
2019-03-05T09:04:42.063Z,91.30
2019-03-05T09:07:11.127Z,91.50
2019-03-05T09:09:40.153Z,91.60
2019-03-05T09:12:09.253Z,91.70
2019-03-05T09:14:38.306Z,91.70
2019-03-05T09:17:07.289Z,91.70
2019-03-05T09:19:36.324Z,91.70
2019-03-05T09:22:05.351Z,91.60
2019-03-05T09:24:34.395Z,91.40
2019-03-05T09:27:03.421Z,91.20
2019-03-05T09:29:32.494Z,90.80
2019-03-05T09:32:01.558Z,90.50
2019-03-05T09:34:30.633Z,90.40
2019-03-05T09:36:59.656Z,90.30
2019-03-05T09:39:28.664Z,90.20
2019-03-05T09:41:57.770Z,90.10
2019-03-05T09:44:26.792Z,89.80
2019-03-05T09:46:55.810Z,89.20
2019-03-05T09:49:24.894Z,88.50
2019-03-05T09:51:53.823Z,87.40
2019-03-05T09:54:22.849Z,84.10
2019-03-05T09:56:51.870Z,76.00
2019-03-05T09:59:20.892Z,73.20
2019-03-05T10:01:53.600Z,71.80
2019-03-05T10:04:22.602Z,70.80
2019-03-05T10:06:51.670Z,70.10
2019-03-05T10:09:20.725Z,69.50
2019-03-05T10:11:56.381Z,69.10
2019-03-05T10:14:20.492Z,68.90
2019-03-05T10:16:49.506Z,68.80
2019-03-05T10:19:18.534Z,68.80
2019-03-05T10:21:47.509Z,68.80
2019-03-05T10:24:16.625Z,69.00
2019-03-05T10:26:45.687Z,68.90
2019-03-05T10:29:14.698Z,68.80
2019-03-05T10:31:43.738Z,68.80
2019-03-05T10:34:12.813Z,68.60
2019-03-05T10:36:41.827Z,68.50
2019-03-05T10:39:30.620Z,68.60
2019-03-05T10:41:55.990Z,68.50
2019-03-05T10:44:25.049Z,68.60
2019-03-05T10:46:56.010Z,68.60
2019-03-05T10:49:24.825Z,68.60
2019-03-05T10:51:53.961Z,68.50
2019-03-05T10:54:23.012Z,68.60
2019-03-05T10:56:52.012Z,68.30
2019-03-05T10:59:21.157Z,68.00
2019-03-05T11:01:50.319Z,67.70
2019-03-05T11:04:19.329Z,67.40
2019-03-05T11:06:48.361Z,67.30
2019-03-05T11:09:17.998Z,66.90
2019-03-05T11:11:47.168Z,66.60
2019-03-05T11:14:16.177Z,66.20
2019-03-05T11:16:45.213Z,65.80
2019-03-05T11:19:14.257Z,65.30
2019-03-05T11:21:43.296Z,65.00
2019-03-05T11:24:12.303Z,64.60
2019-03-05T11:26:41.378Z,64.40
2019-03-05T11:29:10.450Z,64.00
2019-03-05T11:31:39.438Z,63.80
2019-03-05T11:34:08.477Z,63.60
2019-03-05T11:36:37.510Z,63.40
2019-03-05T11:39:06.871Z,63.20
2019-03-05T11:41:35.898Z,63.10
2019-03-05T11:44:04.977Z,63.00
2019-03-05T11:46:33.933Z,62.90
2019-03-05T11:49:02.922Z,62.70
2019-03-05T11:51:31.929Z,62.40
2019-03-05T11:54:00.971Z,62.00
2019-03-05T11:56:30.034Z,61.70
2019-03-05T11:58:59.111Z,61.30
2019-03-05T12:01:34.775Z,61.00
2019-03-05T12:04:03.770Z,60.50
2019-03-05T12:06:32.791Z,60.20
2019-03-05T12:09:01.794Z,59.90
2019-03-05T12:11:30.826Z,59.60
2019-03-05T12:13:59.788Z,59.40
2019-03-05T12:16:28.754Z,59.10
2019-03-05T12:18:57.785Z,58.80
2019-03-05T12:21:26.956Z,58.20
2019-03-05T12:23:55.959Z,57.80
2019-03-05T12:26:24.988Z,57.30
2019-03-05T12:28:54.024Z,56.80
2019-03-05T12:31:23.185Z,56.30
2019-03-05T12:33:52.242Z,55.80
2019-03-05T12:36:21.306Z,55.40
2019-03-05T12:38:50.327Z,54.90
2019-03-05T12:41:19.347Z,54.50
2019-03-05T12:43:48.412Z,54.10
2019-03-05T12:46:17.444Z,53.70
2019-03-05T12:48:46.363Z,53.30
2019-03-05T12:51:15.386Z,52.90
2019-03-05T12:53:44.354Z,52.70
2019-03-05T12:56:23.555Z,52.40
2019-03-05T12:58:44.025Z,52.20
2019-03-05T13:01:13.181Z,52.10
2019-03-05T13:03:42.252Z,52.00
2019-03-05T13:06:11.284Z,51.90
2019-03-05T13:08:40.287Z,51.90
2019-03-05T13:11:12.617Z,51.80
2019-03-05T13:13:40.058Z,51.60
2019-03-05T13:16:09.096Z,51.70
2019-03-05T13:18:38.273Z,51.60
2019-03-05T13:21:07.661Z,51.40
2019-03-05T13:23:37.689Z,51.50
2019-03-05T13:26:07.564Z,51.30
2019-03-05T13:28:40.554Z,51.20
2019-03-05T13:31:08.076Z,51.00
2019-03-05T13:33:38.020Z,50.80
2019-03-05T13:36:12.021Z,50.70
2019-03-05T13:38:41.847Z,50.70
2019-03-05T13:41:12.135Z,50.40
2019-03-05T13:43:41.284Z,50.20
2019-03-05T13:46:10.329Z,50.00
2019-03-05T13:49:23.998Z,49.70
2019-03-05T13:52:25.058Z,49.50
2019-03-05T13:55:09.641Z,49.40
2019-03-05T13:58:06.175Z,49.10
2019-03-05T14:00:35.302Z,48.90
2019-03-05T14:03:20.679Z,48.60
2019-03-05T14:06:33.539Z,48.20
2019-03-05T14:09:22.547Z,47.90
2019-03-05T14:11:52.222Z,47.60
2019-03-05T14:14:22.953Z,47.30
2019-03-05T14:17:14.186Z,46.90
2019-03-05T14:19:43.327Z,46.70
2019-03-05T14:22:12.325Z,46.60
2019-03-05T14:24:41.355Z,46.40
2019-03-05T14:27:10.389Z,46.30
2019-03-05T14:29:39.512Z,46.00
2019-03-05T14:32:08.913Z,45.90
2019-03-05T14:34:37.997Z,45.70
2019-03-05T14:37:07.059Z,45.40
2019-03-05T14:39:36.923Z,45.30
2019-03-05T14:42:08.078Z,45.10
2019-03-05T14:44:40.103Z,45.10
2019-03-05T14:47:08.119Z,45.10
2019-03-05T14:49:37.122Z,45.00
2019-03-05T14:52:06.258Z,44.80
2019-03-05T14:54:35.334Z,44.80
2019-03-05T14:57:04.365Z,44.70
2019-03-05T14:59:33.368Z,44.50
2019-03-05T15:02:02.517Z,44.40
2019-03-05T15:04:31.652Z,44.30
2019-03-05T15:07:00.717Z,44.10
2019-03-05T15:09:29.781Z,43.90
2019-03-05T15:11:58.801Z,43.60
2019-03-05T15:14:27.901Z,43.40
2019-03-05T15:16:56.959Z,43.20
2019-03-05T15:19:25.955Z,43.10
2019-03-05T15:21:54.948Z,42.90
2019-03-05T15:24:24.069Z,42.70
2019-03-05T15:26:53.193Z,42.40
2019-03-05T15:29:22.435Z,42.10
2019-03-05T15:31:51.486Z,42.10
2019-03-05T15:34:20.548Z,42.00
2019-03-05T15:36:52.044Z,41.80
2019-03-05T15:39:20.331Z,41.60
2019-03-05T15:41:49.458Z,41.50
2019-03-05T15:44:18.464Z,41.40
2019-03-05T15:46:47.556Z,41.90
2019-03-05T15:49:16.748Z,41.20
2019-03-05T15:51:45.874Z,41.10
2019-03-05T15:54:14.920Z,41.20
2019-03-05T15:56:44.086Z,41.10
2019-03-05T15:59:13.161Z,41.30
2019-03-05T16:01:42.218Z,41.40
2019-03-05T16:04:11.300Z,41.50
2019-03-05T16:06:40.357Z,41.50
2019-03-05T16:09:17.609Z,41.50
2019-03-05T16:11:46.690Z,41.40
2019-03-05T16:14:15.792Z,41.40
2019-03-05T16:16:44.783Z,41.40
2019-03-05T16:19:16.638Z,41.60
2019-03-05T16:21:44.674Z,41.70
2019-03-05T16:24:13.793Z,42.00
2019-03-05T16:26:42.937Z,42.20
2019-03-05T16:29:12.101Z,42.60
2019-03-05T16:31:51.277Z,42.80
2019-03-05T16:34:45.839Z,43.20
2019-03-05T16:37:26.734Z,43.60
2019-03-05T16:40:00.918Z,44.10
2019-03-05T16:42:49.057Z,44.40
2019-03-05T16:45:30.657Z,44.70
2019-03-05T16:48:09.190Z,45.10
2019-03-05T16:50:55.731Z,45.40
2019-03-05T16:53:43.853Z,45.70
2019-03-05T16:56:32.170Z,46.00
2019-03-05T16:59:14.502Z,46.30
2019-03-05T17:01:49.234Z,46.60
2019-03-05T17:04:49.525Z,47.00
2019-03-05T17:07:25.862Z,47.20
2019-03-05T17:10:22.615Z,47.50
2019-03-05T17:12:51.706Z,47.80
2019-03-05T17:15:20.684Z,48.20
2019-03-05T17:17:49.849Z,48.40
2019-03-05T17:20:18.930Z,48.60
2019-03-05T17:22:47.982Z,48.70
2019-03-05T17:25:17.190Z,49.00
2019-03-05T17:27:46.287Z,49.10
2019-03-05T17:30:15.894Z,49.30
2019-03-05T17:32:44.951Z,49.50
2019-03-05T17:35:14.061Z,49.60
2019-03-05T17:37:43.209Z,49.70
2019-03-05T17:40:12.237Z,49.90
2019-03-05T17:42:41.258Z,50.10
2019-03-05T17:45:13.238Z,50.30
2019-03-05T17:47:42.347Z,50.40
2019-03-05T17:50:11.730Z,50.70
2019-03-05T17:52:40.790Z,50.80
2019-03-05T17:55:11.852Z,50.90
2019-03-05T17:57:41.046Z,51.00
2019-03-05T18:00:12.191Z,51.20
2019-03-05T18:02:41.306Z,51.30
2019-03-05T18:05:10.367Z,51.40
2019-03-05T18:07:39.480Z,51.60
2019-03-05T18:10:09.386Z,51.80
2019-03-05T18:12:38.631Z,52.00
2019-03-05T18:15:08.542Z,52.20
2019-03-05T18:17:37.598Z,52.40
2019-03-05T18:20:08.070Z,52.70
2019-03-05T18:22:37.201Z,52.80
2019-03-05T18:25:06.935Z,53.00
2019-03-05T18:27:36.069Z,53.20
2019-03-05T18:30:06.955Z,53.40
2019-03-05T18:32:36.122Z,53.70
2019-03-05T18:35:05.660Z,53.90
2019-03-05T18:37:34.679Z,54.20
2019-03-05T18:40:04.122Z,54.30
2019-03-05T18:42:33.159Z,54.60
2019-03-05T18:45:02.227Z,54.80
2019-03-05T18:47:31.303Z,55.00
2019-03-05T18:50:00.409Z,55.20
2019-03-05T18:52:29.518Z,55.40
2019-03-05T18:54:58.642Z,55.50
2019-03-05T18:57:27.812Z,55.70
2019-03-05T18:59:56.911Z,55.90
2019-03-05T19:02:26.373Z,56.10
2019-03-05T19:04:55.451Z,56.20
2019-03-05T19:07:24.506Z,56.40
2019-03-05T19:09:53.569Z,56.40
2019-03-05T19:12:22.801Z,56.70
2019-03-05T19:14:52.219Z,56.80
2019-03-05T19:17:21.323Z,57.00
2019-03-05T19:19:50.483Z,57.20
2019-03-05T19:22:19.685Z,57.40
2019-03-05T19:24:48.992Z,57.60
2019-03-05T19:27:25.963Z,57.80
2019-03-05T19:29:48.885Z,57.90
2019-03-05T19:32:18.010Z,58.10
2019-03-05T19:34:47.217Z,58.30
2019-03-05T19:37:16.297Z,58.60
2019-03-05T19:39:46.302Z,58.80
2019-03-05T19:42:15.364Z,59.00
2019-03-05T19:44:44.408Z,59.00
2019-03-05T19:47:13.454Z,59.10
2019-03-05T19:49:44.114Z,59.20
2019-03-05T19:52:13.180Z,59.30
2019-03-05T19:54:44.973Z,59.50
2019-03-05T19:57:14.523Z,59.60
2019-03-05T19:59:49.659Z,59.70
2019-03-05T20:02:19.852Z,59.90
2019-03-05T20:04:49.188Z,60.10
2019-03-05T20:07:18.345Z,60.20
2019-03-05T20:09:47.411Z,60.30
2019-03-05T20:12:16.464Z,60.40
2019-03-05T20:15:05.291Z,60.60
2019-03-05T20:17:34.358Z,60.70
2019-03-05T20:20:03.674Z,61.00
2019-03-05T20:22:32.699Z,61.20
2019-03-05T20:25:01.869Z,61.30
2019-03-05T20:27:30.931Z,61.50
2019-03-05T20:30:00.034Z,61.90
2019-03-05T20:32:29.198Z,62.10
2019-03-05T20:34:58.260Z,62.30
2019-03-05T20:37:27.367Z,62.50
2019-03-05T20:39:56.473Z,62.40
2019-03-05T20:42:25.527Z,62.50
2019-03-05T20:44:54.673Z,62.70
2019-03-05T20:47:23.700Z,63.00
2019-03-05T20:49:52.740Z,63.00
2019-03-05T20:52:21.728Z,63.00
2019-03-05T20:54:50.847Z,63.10
2019-03-05T20:57:20.022Z,63.40
2019-03-05T20:59:49.083Z,64.40
2019-03-05T21:02:18.208Z,63.80
2019-03-05T21:05:06.720Z,63.90
2019-03-05T21:07:35.817Z,64.20
2019-03-05T21:10:05.554Z,64.40
2019-03-05T21:12:34.651Z,64.60
2019-03-05T21:15:03.763Z,64.70
2019-03-05T21:17:32.850Z,65.00
2019-03-05T21:20:01.905Z,65.10
2019-03-05T21:22:30.957Z,65.40
2019-03-05T21:24:59.989Z,65.50
2019-03-05T21:27:29.107Z,65.70
2019-03-05T21:29:58.144Z,65.90
2019-03-05T21:32:27.296Z,66.10
2019-03-05T21:35:15.595Z,66.10
2019-03-05T21:37:44.634Z,66.30
2019-03-05T21:40:18.619Z,66.40
2019-03-05T21:42:47.706Z,66.70
2019-03-05T21:45:22.877Z,67.00
2019-03-05T21:47:51.942Z,67.10
2019-03-05T21:50:23.048Z,67.30
2019-03-05T21:52:51.926Z,67.50
2019-03-05T21:55:20.973Z,67.70
2019-03-05T21:57:49.988Z,68.00
2019-03-05T22:00:21.518Z,68.20
2019-03-05T22:02:50.593Z,68.50
2019-03-05T22:05:19.664Z,68.60
2019-03-05T22:07:48.665Z,68.80
2019-03-05T22:10:18.586Z,69.10
2019-03-05T22:12:47.918Z,69.20
2019-03-05T22:15:18.319Z,69.60
2019-03-05T22:17:47.388Z,70.10
2019-03-05T22:20:16.643Z,70.10
2019-03-05T22:22:45.665Z,70.40
2019-03-05T22:25:16.406Z,70.60
2019-03-05T22:27:45.497Z,70.80
2019-03-05T22:30:19.702Z,71.00
2019-03-05T22:32:48.763Z,72.10
2019-03-05T22:35:19.437Z,71.60
2019-03-05T22:37:48.561Z,71.90
2019-03-05T22:40:17.705Z,72.10
2019-03-05T22:42:46.768Z,72.50
2019-03-05T22:45:20.279Z,72.70
2019-03-05T22:47:49.674Z,72.90
2019-03-05T22:50:37.877Z,73.20
2019-03-05T22:53:06.979Z,73.40
2019-03-05T22:55:36.044Z,73.60
2019-03-05T22:58:05.112Z,73.80
2019-03-05T23:01:17.383Z,74.20
2019-03-05T23:03:53.013Z,74.40
2019-03-05T23:06:22.238Z,74.50
2019-03-05T23:08:51.269Z,74.70
2019-03-05T23:11:20.253Z,74.90
2019-03-05T23:13:49.252Z,75.20
2019-03-05T23:16:18.348Z,75.40
2019-03-05T23:18:47.829Z,75.50
2019-03-05T23:21:17.041Z,75.80
2019-03-05T23:23:46.150Z,76.00
2019-03-05T23:26:15.314Z,76.20
2019-03-05T23:28:44.370Z,76.40
2019-03-05T23:31:13.673Z,76.60
2019-03-05T23:33:42.705Z,76.80
2019-03-05T23:36:11.802Z,77.10
2019-03-05T23:38:40.864Z,77.20
2019-03-05T23:41:09.890Z,77.60
2019-03-05T23:43:39.067Z,77.70
2019-03-05T23:46:08.126Z,77.90
2019-03-05T23:48:37.141Z,78.10
2019-03-05T23:51:07.333Z,78.30
2019-03-05T23:53:55.559Z,78.40
2019-03-05T23:56:24.713Z,78.60
2019-03-05T23:58:53.926Z,78.90
